TimeCST,TemperatureF,Dew PointF,Humidity,Sea Level PressureIn,VisibilityMPH,Wind Direction,Wind SpeedMPH,Gust SpeedMPH,PrecipitationIn,Events,Conditions,WindDirDegrees,DateUTC
12:54 AM,32.0,28.9,88,29.91,5.0,WNW,4.6,-,N/A,,Overcast,290,2012-12-19 06:54:00
1:54 AM,30.9,28.9,92,29.92,6.0,Calm,Calm,-,N/A,,Overcast,0,2012-12-19 07:54:00
2:54 AM,32.0,30.0,92,29.94,6.0,WSW,4.6,-,N/A,,Overcast,250,2012-12-19 08:54:00
3:54 AM,32.0,30.0,92,29.95,6.0,SSW,4.6,-,N/A,,Overcast,200,2012-12-19 09:54:00
4:54 AM,32.0,30.0,92,29.97,6.0,South,3.5,-,N/A,,Overcast,190,2012-12-19 10:54:00
5:54 AM,32.0,30.2,93,29.96,6.0,SSW,4.6,-,N/A,,Overcast,210,2012-12-19 11:54:00
6:54 AM,32.0,28.9,88,29.99,7.0,Calm,Calm,-,N/A,,Overcast,0,2012-12-19 12:54:00
7:54 AM,32.0,30.0,92,29.99,7.0,Calm,Calm,-,N/A,,Overcast,0,2012-12-19 13:54:00
8:54 AM,32.0,30.0,92,30.00,6.0,SE,3.5,-,N/A,,Overcast,140,2012-12-19 14:54:00
9:54 AM,32.0,28.9,88,30.02,6.0,SE,6.9,-,N/A,,Overcast,140,2012-12-19 15:54:00
10:10 AM,33.8,30.2,87,29.99,6.0,South,5.8,-,N/A,,Overcast,170,2012-12-19 16:10:00
10:54 AM,33.1,30.0,89,30.03,6.0,SSW,5.8,-,N/A,,Overcast,200,2012-12-19 16:54:00
11:54 AM,33.1,30.0,89,30.04,7.0,South,6.9,-,N/A,,Overcast,190,2012-12-19 17:54:00
12:32 PM,33.8,30.2,87,29.99,7.0,SE,5.8,-,N/A,,Overcast,140,2012-12-19 18:32:00
12:54 PM,34.0,30.0,85,30.01,6.0,SSE,3.5,-,N/A,,Overcast,150,2012-12-19 18:54:00
1:54 PM,35.1,30.0,82,29.99,7.0,ENE,8.1,-,N/A,,Overcast,60,2012-12-19 19:54:00
2:54 PM,34.0,30.0,85,29.97,6.0,ENE,9.2,-,N/A,,Overcast,60,2012-12-19 20:54:00
3:54 PM,34.0,30.0,85,29.96,4.0,East,12.7,-,N/A,,Overcast,80,2012-12-19 21:54:00
4:54 PM,33.1,30.0,89,29.91,6.0,NE,15.0,-,N/A,,Overcast,50,2012-12-19 22:54:00
5:02 PM,33.8,30.2,87,29.88,6.0,ENE,12.7,23.0,N/A,,Overcast,70,2012-12-19 23:02:00
5:22 PM,33.8,30.2,87,29.91,6.0,East,11.5,-,N/A,,Overcast,80,2012-12-19 23:22:00
5:54 PM,33.1,30.0,89,29.96,7.0,East,9.2,-,N/A,,Overcast,90,2012-12-19 23:54:00
6:52 PM,33.8,30.2,87,29.93,1.8,East,10.4,-,0.00,Snow,Light Snow,80,2012-12-20 00:52:00
6:54 PM,32.0,30.0,92,29.96,1.5,East,11.5,-,0.00,Snow,Light Snow,80,2012-12-20 00:54:00
7:01 PM,32.0,30.2,93,29.92,1.5,ENE,10.4,-,0.00,Snow,Light Snow,60,2012-12-20 01:01:00
7:30 PM,32.0,30.2,93,29.91,0.8,ENE,11.5,-,0.02,Snow,Light Snow,60,2012-12-20 01:30:00
7:37 PM,32.0,30.2,93,29.90,0.8,ENE,11.5,-,0.03,Snow,Light Snow,60,2012-12-20 01:37:00
7:54 PM,32.0,30.9,96,29.92,0.8,ENE,12.7,-,0.05,Snow,Light Snow,60,2012-12-20 01:54:00
8:27 PM,32.0,30.2,93,29.86,1.0,ENE,15.0,-,0.04,Snow,Light Snow,60,2012-12-20 02:27:00
8:54 PM,32.0,30.9,96,29.86,1.0,NE,17.3,-,0.05,Snow,Light Snow,50,2012-12-20 02:54:00
9:04 PM,32.0,30.2,93,29.83,0.8,NE,16.1,-,0.01,Snow,Light Snow,50,2012-12-20 03:04:00
9:25 PM,32.0,30.2,93,29.82,1.0,NE,17.3,25.3,0.04,Snow,Light Snow,50,2012-12-20 03:25:00
9:43 PM,32.0,30.2,93,29.82,0.8,NE,17.3,-,0.06,Snow,Light Snow,50,2012-12-20 03:43:00
9:54 PM,32.0,30.9,96,29.84,0.8,NE,15.0,-,0.07,Snow,Light Snow,50,2012-12-20 03:54:00
10:54 PM,30.9,30.9,100,29.82,0.2,NNE,18.4,24.2,0.15,Fog-Snow,Heavy Snow,30,2012-12-20 04:54:00
11:10 PM,30.2,30.2,100,29.77,0.5,NNE,17.3,-,0.06,Fog-Snow,Snow,30,2012-12-20 05:10:00
11:17 PM,30.2,30.2,100,29.77,0.2,NNE,16.1,-,0.08,Fog-Snow,Heavy Snow,30,2012-12-20 05:17:00
11:37 PM,30.2,30.2,100,29.78,0.5,NNE,16.1,-,0.14,Fog-Snow,Snow,20,2012-12-20 05:37:00
11:51 PM,30.2,30.2,100,29.77,0.5,NNE,15.0,-,0.17,Fog-Snow,Snow,20,2012-12-20 05:51:00
11:54 PM,30.9,30.9,100,29.80,0.5,NNE,15.0,-,0.17,Fog-Snow,Snow,20,2012-12-20 05:54:00